createdAt,value
2019-03-21T00:01:44.386Z,96.22
2019-03-21T00:11:44.387Z,96.30
2019-03-21T00:21:44.400Z,96.42
2019-03-21T00:31:44.417Z,96.56
2019-03-21T00:41:44.429Z,96.95
2019-03-21T00:51:44.380Z,97.35
2019-03-21T01:01:44.363Z,97.16
2019-03-21T01:11:44.365Z,97.37
2019-03-21T01:21:44.409Z,97.52
2019-03-21T01:31:44.320Z,97.49
2019-03-21T01:41:44.400Z,97.69
2019-03-21T01:51:44.440Z,97.83
2019-03-21T02:01:44.420Z,97.90
2019-03-21T02:11:44.374Z,98.46
2019-03-21T02:21:44.570Z,98.33
2019-03-21T02:31:44.372Z,98.37
2019-03-21T02:41:44.660Z,98.38
2019-03-21T02:51:44.407Z,98.57
2019-03-21T03:01:44.377Z,98.82
2019-03-21T03:11:45.453Z,98.76
2019-03-21T03:21:44.323Z,99.00
2019-03-21T03:31:44.394Z,99.01
2019-03-21T03:41:44.313Z,99.05
2019-03-21T03:51:44.388Z,99.35
2019-03-21T04:01:44.322Z,98.91
2019-03-21T04:11:44.400Z,99.17
2019-03-21T04:21:44.280Z,99.47
2019-03-21T04:31:44.303Z,99.33
2019-03-21T04:41:44.348Z,99.66
2019-03-21T04:51:44.471Z,99.82
2019-03-21T05:01:44.309Z,99.69
2019-03-21T05:11:51.805Z,99.90
2019-03-21T05:21:44.303Z,100.00
2019-03-21T05:31:44.346Z,100.00
2019-03-21T05:41:44.233Z,99.74
2019-03-21T05:51:44.238Z,100.00
2019-03-21T06:01:44.278Z,100.00
2019-03-21T06:11:44.287Z,100.00
2019-03-21T06:21:44.317Z,100.00
2019-03-21T06:31:44.305Z,100.00
2019-03-21T06:41:44.429Z,100.00
2019-03-21T06:51:45.445Z,100.00
2019-03-21T07:01:44.302Z,99.80
2019-03-21T07:11:44.321Z,94.81
2019-03-21T07:21:44.291Z,86.26
2019-03-21T07:31:44.891Z,84.29
2019-03-21T07:41:46.437Z,82.02
2019-03-21T07:51:45.474Z,79.10
2019-03-21T08:01:44.373Z,72.92
2019-03-21T08:11:45.946Z,70.00
2019-03-21T08:21:44.359Z,66.39
2019-03-21T08:31:44.543Z,63.05
2019-03-21T08:41:44.452Z,57.79
2019-03-21T08:51:44.453Z,53.04
2019-03-21T09:01:44.471Z,49.58
2019-03-21T09:11:44.947Z,45.92
2019-03-21T09:21:46.171Z,43.08
2019-03-21T09:31:45.058Z,41.85
2019-03-21T09:41:45.784Z,40.34
2019-03-21T09:51:44.505Z,41.98
2019-03-21T10:01:44.620Z,40.17
2019-03-21T10:11:44.341Z,37.63
2019-03-21T10:21:44.698Z,38.78
2019-03-21T10:31:45.641Z,38.70
2019-03-21T10:41:44.378Z,37.78
2019-03-21T10:51:54.360Z,36.87
2019-03-21T11:01:45.286Z,37.62
2019-03-21T11:11:45.208Z,36.83
2019-03-21T11:21:45.597Z,36.19
2019-03-21T11:31:44.505Z,36.89
2019-03-21T11:41:46.294Z,36.80
2019-03-21T11:51:45.268Z,35.48
2019-03-21T12:01:44.523Z,34.85
2019-03-21T12:11:45.287Z,32.80
2019-03-21T12:21:45.576Z,32.72
2019-03-21T13:02:32.231Z,34.78
2019-03-21T13:12:30.474Z,33.01
2019-03-21T13:22:28.845Z,36.50
2019-03-21T13:32:28.630Z,37.80
2019-03-21T13:42:28.415Z,35.70
2019-03-21T13:52:28.404Z,37.93
2019-03-21T14:02:28.404Z,39.98
2019-03-21T14:12:28.885Z,35.81
2019-03-21T14:22:28.358Z,36.10
2019-03-21T14:32:28.349Z,34.88
2019-03-21T14:42:28.486Z,35.84
2019-03-21T14:52:28.438Z,39.48
2019-03-21T15:02:28.521Z,38.91
2019-03-21T15:12:29.714Z,42.57
2019-03-21T15:22:28.410Z,39.29
2019-03-21T15:32:28.473Z,42.54
2019-03-21T15:42:29.257Z,40.54
2019-03-21T15:52:28.427Z,40.98
2019-03-21T16:02:28.660Z,41.93
2019-03-21T16:12:28.423Z,42.63
2019-03-21T16:22:28.516Z,44.90
2019-03-21T16:32:30.016Z,45.65
2019-03-21T16:42:28.480Z,45.94
2019-03-21T16:52:29.434Z,51.05
2019-03-21T17:02:28.443Z,53.09
2019-03-21T17:12:28.420Z,53.67
2019-03-21T17:22:28.489Z,55.59
2019-03-21T17:32:28.438Z,55.59
2019-03-21T17:42:29.296Z,56.99
2019-03-21T17:52:28.473Z,57.88
2019-03-21T18:02:28.548Z,59.11
2019-03-21T18:12:28.487Z,58.68
2019-03-21T18:22:28.529Z,60.96
2019-03-21T18:32:28.503Z,62.62
2019-03-21T18:42:28.455Z,64.99
2019-03-21T18:52:28.509Z,66.73
2019-03-21T19:02:28.446Z,68.17
2019-03-21T19:12:28.459Z,69.13
2019-03-21T19:22:28.431Z,69.91
2019-03-21T19:32:28.466Z,71.01
2019-03-21T19:42:28.463Z,72.26
2019-03-21T19:52:28.410Z,73.05
2019-03-21T20:02:28.476Z,74.35
2019-03-21T20:12:28.403Z,74.62
2019-03-21T20:22:28.479Z,76.38
2019-03-21T20:32:28.491Z,77.23
2019-03-21T20:42:28.391Z,78.47
2019-03-21T20:52:28.415Z,79.81
2019-03-21T21:02:28.410Z,81.28
2019-03-21T21:12:28.517Z,81.98
2019-03-21T21:22:28.486Z,82.63
2019-03-21T21:32:31.332Z,83.26
2019-03-21T21:42:28.456Z,84.74
2019-03-21T21:52:28.524Z,85.41
2019-03-21T22:02:28.424Z,86.17
2019-03-21T22:12:28.477Z,86.65
2019-03-21T22:22:28.368Z,87.15
2019-03-21T22:32:28.348Z,88.31
2019-03-21T22:42:28.398Z,88.54
2019-03-21T22:52:28.462Z,89.00
2019-03-21T23:02:28.419Z,90.70
2019-03-21T23:12:28.332Z,90.80
2019-03-21T23:22:29.436Z,90.76
2019-03-21T23:32:28.235Z,91.22
2019-03-21T23:42:28.448Z,91.78
2019-03-21T23:52:28.413Z,92.26
